Stations météo

réclame
Mon MeteoGroup
Utklippan, Suède (2632): Température de l'air & dewpoint: 18.01.2018 10:00:00 - 24.01.2018 10:00:00 (CET)Utklippan, Suède (2632): Vitesse du vent & gusts: 18.01.2018 10:00:00 - 24.01.2018 10:00:00 (CET)Utklippan, Suède (2632): Direction du vent: 18.01.2018 10:00:00 - 24.01.2018 10:00:00 (CET)
Date & Time tt [°C] td [°C] ff [km/h] ff [knt] fx [km/h] fx [knt] dd
24.01.2018 10:00:00 5,7 5,7 38 20 50 27 SW
24.01.2018 09:00:00 5,6 5,6 38 21 51 27 SW
24.01.2018 08:00:00 5,5 5,5 40 22 52 28 SW
24.01.2018 07:00:00 5,3 5,3 45 24 64 35 SW
24.01.2018 06:00:00 5,1 5,1 49 26 66 35 SW
24.01.2018 05:00:00 4,8 4,7 47 25 70 38 SSW
24.01.2018 04:00:00 4,2 4,1 54 29 72 39 S
24.01.2018 03:00:00 3,9 3,5 50 27 64 34 S
24.01.2018 02:00:00 3,8 3,5 46 25 63 34 S
24.01.2018 01:00:00 3,6 3,3 49 26 60 32 S
24.01.2018 00:00:00 3,2 3,1 44 24 57 31 S
23.01.2018 23:00:00 2,8 2,4 43 23 56 30 S
23.01.2018 22:00:00 2,2 1,6 45 24 56 30 S
23.01.2018 21:00:00 1,8 0,9 40 21 49 27 S
23.01.2018 20:00:00 1,6 0,6 36 20 46 25 S
23.01.2018 19:00:00 1,2 -0,4 31 17 48 26 S
23.01.2018 18:00:00 1,0 -1,1 35 19 46 25 S
23.01.2018 17:00:00 1,0 -1,6 29 16 42 23 S
23.01.2018 16:00:00 0,7 -2,5 25 14 37 20 S
23.01.2018 15:00:00 0,7 -3,0 22 12 37 20 S
23.01.2018 14:00:00 0,8 -2,8 27 15 37 20 S
23.01.2018 13:00:00 0,8 -4,6 26 14 37 20 S
23.01.2018 12:00:00 1,2 -4,2 26 14 36 19 S
23.01.2018 11:00:00 1,4 -3,7 25 14 35 19 S
23.01.2018 10:00:00 1,4 -4,1 22 12 30 16 S
23.01.2018 09:00:00 1,3 -4,4 22 12 31 17 SSE
23.01.2018 08:00:00 1,2 -3,5 19 11 25 14 SE
23.01.2018 07:00:00 1,0 -4,6 16 9 24 13 S
23.01.2018 06:00:00 0,8 -4,4 15 8 26 14 SE
23.01.2018 05:00:00 1,0 -3,7 15 8 23 13 SSE
23.01.2018 04:00:00 0,9 -3,8 11 6 18 10 SSE
23.01.2018 03:00:00 0,5 -4,0 11 6 20 11 S
23.01.2018 02:00:00 0,3 -4,0 10 5 19 11 SE
23.01.2018 01:00:00 0,1 -3,8 9 5 25 13 SE
23.01.2018 00:00:00 0,1 -3,6 16 9 27 15 SE
22.01.2018 23:00:00 0,5 -3,1 21 11 29 16 SE
22.01.2018 22:00:00 0,7 -3,2 23 12 33 18 ESE
22.01.2018 21:00:00 0,9 -3,2 26 14 32 18 SE
22.01.2018 20:00:00 1,1 -3,4 24 13 37 20 SE
22.01.2018 19:00:00 1,4 -3,3 29 16 36 19 SE
22.01.2018 18:00:00 1,4 -4,1 24 13 37 20 SSE
22.01.2018 17:00:00 1,4 -3,9 26 14 36 19 SSE
22.01.2018 16:00:00 1,5 -2,8 23 12 31 17 S
22.01.2018 15:00:00 1,7 -2,4 22 12 32 18 S
22.01.2018 14:00:00 1,7 -3,0 23 13 32 17 S
22.01.2018 13:00:00 1,6 -3,5 22 12 33 18 S
22.01.2018 12:00:00 1,2 -3,3 19 11 34 18 S
22.01.2018 11:00:00 1,5 -2,8 27 15 32 18 S
22.01.2018 10:00:00 1,7 -2,6 21 12 29 16 SSW
22.01.2018 09:00:00 1,5 -1,7 14 8 30 16 SW
22.01.2018 08:00:00 1,5 -2,8 19 11 33 18 SSW
22.01.2018 07:00:00 1,5 -0,3 27 14 31 17 SSW
22.01.2018 06:00:00 1,1 0,2 20 11 27 15 SSW
22.01.2018 05:00:00 1,8 -1,1 8 4 12 6 S
22.01.2018 04:00:00 1,7 -1,2 10 5 15 8 SSW
22.01.2018 03:00:00 1,8 -1,1 11 6 19 10 SW
22.01.2018 02:00:00 1,7 -0,7 15 8 20 11 SW
22.01.2018 01:00:00 1,3 -0,8 5 3 9 5 W
22.01.2018 00:00:00 1,2 -1,0 5 3 8 5 W
21.01.2018 23:00:00 1,1 -2,0 0 0 11 6 N
21.01.2018 22:00:00 1,0 -1,7 8 4 17 9 WNW
21.01.2018 21:00:00 1,1 -0,8 8 4 12 6 WNW
21.01.2018 20:00:00 1,1 -0,8 4 2 12 6 NNW
21.01.2018 19:00:00 1,1 -0,5 8 5 15 8 NNW
21.01.2018 18:00:00 1,3 -0,2 13 7 17 9 NW
21.01.2018 17:00:00 1,2 -1,4 7 4 14 8 NW
21.01.2018 16:00:00 1,1 -1,5 9 5 18 10 NW
21.01.2018 15:00:00 1,2 -0,9 11 6 15 8 NW
21.01.2018 14:00:00 1,1 -0,5 9 5 14 7 NW
21.01.2018 13:00:00 1,2 -0,1 10 5 17 9 N
21.01.2018 12:00:00 0,5 0,1 16 8 22 12 N
21.01.2018 11:00:00 1,0 0,9 16 9 20 11 N
21.01.2018 10:00:00 0,4 0,3 14 8 22 12 N
21.01.2018 09:00:00 0,4 0,3 3 2 13 7 N
21.01.2018 08:00:00 0,4 0,3 18 10 23 13 N
21.01.2018 07:00:00 0,8 0,5 15 8 19 10 N
21.01.2018 06:00:00 0,8 0,5 14 8 24 13 NNE
21.01.2018 05:00:00 1,5 0,6 17 9 21 11 NNE
21.01.2018 04:00:00 2,2 -0,9 0 0 3 2 N
21.01.2018 03:00:00 2,4 0,0 2 1 11 6 SSE
21.01.2018 02:00:00 2,2 -0,4 3 2 6 4 SSE
21.01.2018 01:00:00 2,4 0,0 4 2 11 6 SSE
21.01.2018 00:00:00 2,3 0,0 8 4 22 12 S
20.01.2018 23:00:00 2,4 0,8 16 8 22 12 S
20.01.2018 22:00:00 2,5 -1,7 9 5 15 8 S
20.01.2018 21:00:00 2,2 -1,6 12 7 23 12 S
20.01.2018 20:00:00 2,5 -1,3 17 9 26 14 S
20.01.2018 19:00:00 2,6 0,5 16 9 21 11 SSW
20.01.2018 18:00:00 2,1 1,2 13 7 19 11 SSW
20.01.2018 17:00:00 2,0 0,8 8 4 15 8 SSW
20.01.2018 16:00:00 2,1 1,2 11 6 16 8 S
20.01.2018 15:00:00 2,1 1,7 0 0 6 4 N
20.01.2018 14:00:00 1,5 0,9 8 5 14 8 SW
20.01.2018 13:00:00 2,2 1,9 11 6 35 19 SSE
20.01.2018 12:00:00 1,9 1,8 30 16 35 19 ESE
20.01.2018 11:00:00 2,1 1,8 29 15 36 19 ESE
20.01.2018 10:00:00 2,2 1,5 25 14 31 17 SE
20.01.2018 09:00:00 2,6 1,4 24 13 31 17 S
20.01.2018 08:00:00 2,9 1,4 21 11 25 13 ESE
20.01.2018 07:00:00 2,3 1,3 23 13 29 16 SSE
20.01.2018 06:00:00 1,7 1,6 16 8 20 11 ENE
20.01.2018 05:00:00 1,2 0,9 18 10 22 12 ESE
20.01.2018 04:00:00 2,4 1,5 14 8 19 10 ESE
20.01.2018 03:00:00 1,3 1,2 19 10 28 15 E
20.01.2018 02:00:00 1,2 0,9 26 14 29 16 SE
20.01.2018 01:00:00 1,8 0,5 22 12 32 18 SW
20.01.2018 00:00:00 2,8 -1,2 12 6 18 10 E
19.01.2018 23:00:00 2,4 0,6 13 7 19 10 E
19.01.2018 22:00:00 2,4 -2,5 8 4 12 6 E
19.01.2018 21:00:00 2,0 -3,1 0 0 6 3 N
19.01.2018 20:00:00 1,6 -2,5 4 2 9 5 WSW
19.01.2018 19:00:00 1,9 -1,5 2 1 5 3 NE
19.01.2018 18:00:00 1,8 -2,3 2 1 11 6 NW
19.01.2018 17:00:00 2,0 -3,7 9 5 15 8 NW
19.01.2018 16:00:00 1,9 -4,6 12 6 16 9 WNW
19.01.2018 15:00:00 1,7 -1,4 12 6 17 9 WNW
19.01.2018 14:00:00 2,3 -0,3 10 5 13 7 WNW
19.01.2018 13:00:00 2,2 -0,1 10 6 14 8 W
19.01.2018 12:00:00 2,3 -0,3 9 5 12 7 NW
19.01.2018 11:00:00 1,8 -0,6 9 5 18 10 NNE
19.01.2018 10:00:00 1,2 -0,1 14 8 19 10 NW
19.01.2018 09:00:00 1,0 0,0 13 7 21 11 NW
19.01.2018 08:00:00 1,0 0,1 15 8 26 14 NW
19.01.2018 07:00:00 1,1 0,4 20 11 26 14 NW
19.01.2018 06:00:00 1,1 0,4 21 11 26 14 NNW
19.01.2018 05:00:00 1,2 0,6 18 10 24 13 NW
19.01.2018 04:00:00 1,5 0,9 16 9 21 11 N
19.01.2018 03:00:00 1,3 1,0 18 10 22 12 N
19.01.2018 02:00:00 1,1 0,8 19 11 23 13 N
19.01.2018 01:00:00 1,1 0,8 20 11 26 14 N
19.01.2018 00:00:00 1,1 0,8 24 13 29 16 N
18.01.2018 23:00:00 1,3 1,0 23 12 28 15 N
18.01.2018 22:00:00 1,7 1,4 23 13 28 15 NNE
18.01.2018 21:00:00 1,9 1,2 23 12 35 19 NNE
18.01.2018 20:00:00 2,2 1,8 25 14 29 16 NNE
18.01.2018 19:00:00 2,6 1,6 23 13 28 15 NE
18.01.2018 18:00:00 2,8 1,9 17 9 26 14 ENE
18.01.2018 17:00:00 3,2 0,8 17 9 23 12 ESE
18.01.2018 16:00:00 2,3 1,4 9 5 16 9 SE
18.01.2018 15:00:00 2,2 1,5 9 5 27 15 ESE
18.01.2018 14:00:00 3,0 0,6 13 7 19 10 SE
18.01.2018 13:00:00 2,5 1,8 16 9 22 12 ESE
18.01.2018 12:00:00 3,1 1,1 19 10 23 12 SSE
18.01.2018 11:00:00 2,2 0,9 8 4 24 13 SE
18.01.2018 10:00:00 1,8 0,9 4 2 19 10 SE

tt = Température de l'air
td = dewpoint
ff = Vitesse du vent
fx = gusts
dd = Direction du vent

stations d'obs. à proximité